Time;durP1;ratioP1;P1;durP2;ratioP2;P2;SDS_P1;SDS_P2;PMS_P1;PMS_P2;Temp;Humidity;BMP_temperature;BMP_pressure;BME280_temperature;BME280_humidity;BME280_pressure;Samples;Min_cycle;Max_cycle;Signal;HPM_P1;HPM_P2
2023/03/31 00:01:11;;;;;;;2.47;1.35;;;;;;;19.74;48.05;96232.22;10348499;28;20111;-72
2023/03/31 00:06:36;;;;;;;2.63;1.40;;;;;;;19.72;48.07;96233.69;10320088;28;20042;-72
2023/03/31 00:11:56;;;;;;;4.22;1.50;;;;;;;19.71;48.08;96222.06;10333178;28;20042;-72
2023/03/31 00:17:15;;;;;;;2.58;1.27;;;;;;;19.70;48.03;96215.09;10319638;28;20482;-72
2023/03/31 00:22:37;;;;;;;1.95;1.38;;;;;;;19.69;48.01;96207.31;10347881;28;20104;-72
2023/03/31 00:27:56;;;;;;;2.00;1.30;;;;;;;19.68;47.99;96203.00;10341143;28;20101;-72
2023/03/31 00:33:16;;;;;;;2.00;1.20;;;;;;;19.67;47.91;96204.94;10319111;28;20042;-72
2023/03/31 00:38:36;;;;;;;1.52;1.13;;;;;;;19.66;47.95;96200.66;10347509;28;20093;-72
2023/03/31 00:44:03;;;;;;;1.58;1.02;;;;;;;19.65;47.88;96196.38;10347559;28;20057;-72
2023/03/31 00:49:40;;;;;;;2.13;1.17;;;;;;;19.63;47.95;96193.22;10332452;28;20054;-72
2023/03/31 00:55:06;;;;;;;2.08;1.20;;;;;;;19.63;47.76;96184.34;10332459;28;20043;-75
2023/03/31 01:00:26;;;;;;;1.65;1.20;;;;;;;19.62;47.98;96180.06;10332512;28;20707;-72
2023/03/31 01:05:53;;;;;;;1.63;1.17;;;;;;;19.62;47.91;96175.47;10347001;28;20462;-72
2023/03/31 01:11:15;;;;;;;2.20;1.10;;;;;;;19.60;48.05;96153.41;10318610;28;20046;-72
2023/03/31 01:16:34;;;;;;;2.22;1.10;;;;;;;19.59;47.78;96143.69;10318490;28;20038;-72
2023/03/31 01:22:23;;;;;;;1.40;1.08;;;;;;;19.58;47.98;96133.22;10331662;28;20042;-72
2023/03/31 01:28:06;;;;;;;;;;;;;;;19.56;47.79;96128.16;10334385;28;20081;-72
2023/03/31 01:33:50;;;;;;;2.38;0.82;;;;;;;19.56;47.89;96117.34;10326057;28;19921;-72
2023/03/31 01:39:20;;;;;;;1.80;1.10;;;;;;;19.54;47.74;96104.22;10325802;28;20053;-72
2023/03/31 01:44:46;;;;;;;1.48;1.10;;;;;;;19.53;47.66;96099.91;10326105;28;20050;-72
2023/03/31 01:50:15;;;;;;;2.22;1.10;;;;;;;19.53;47.86;96093.72;10312016;28;20038;-72
2023/03/31 01:55:37;;;;;;;3.05;1.10;;;;;;;19.52;47.73;96084.03;10338472;28;20046;-72
2023/03/31 02:01:25;;;;;;;1.35;1.15;;;;;;;19.51;47.69;96071.69;10324966;28;20074;-72
2023/03/31 02:06:48;;;;;;;1.70;1.17;;;;;;;19.50;47.65;96075.50;10325371;28;20047;-72
2023/03/31 02:12:10;;;;;;;1.67;1.10;;;;;;;19.48;47.71;96067.75;10338398;28;20045;-72
2023/03/31 02:17:31;;;;;;;1.63;0.93;;;;;;;19.46;47.70;96051.06;10338090;28;20046;-72
2023/03/31 02:22:54;;;;;;;1.70;1.05;;;;;;;19.47;47.54;96049.19;10337751;28;20462;-73
2023/03/31 02:28:18;;;;;;;1.35;0.90;;;;;;;19.45;47.80;96046.81;10330206;28;20502;-72
2023/03/31 02:33:38;;;;;;;1.35;1.10;;;;;;;19.45;47.79;96057.63;10351809;28;20042;-72
2023/03/31 02:39:19;;;;;;;1.65;1.00;;;;;;;19.43;47.72;96035.56;10322854;28;20046;-72
2023/03/31 02:44:39;;;;;;;1.10;0.80;;;;;;;19.44;47.68;96042.53;10336950;28;20050;-72
2023/03/31 02:50:00;;;;;;;1.20;0.80;;;;;;;19.42;47.73;96039.38;10323096;28;20038;-72
2023/03/31 02:55:20;;;;;;;1.30;1.00;;;;;;;19.41;47.63;96037.81;10336411;28;20101;-72
2023/03/31 03:00:43;;;;;;;0.90;0.90;;;;;;;19.40;47.67;96028.13;10336589;28;20038;-72
2023/03/31 03:06:17;;;;;;;1.40;0.90;;;;;;;19.39;47.63;96029.28;10336150;28;20051;-72
2023/03/31 03:11:52;;;;;;;1.92;1.10;;;;;;;19.40;47.67;96027.34;10323736;28;20043;-72
2023/03/31 03:17:50;;;;;;;1.13;0.75;;;;;;;19.38;47.71;96024.22;10336001;28;20050;-72
2023/03/31 03:23:10;;;;;;;1.53;1.00;;;;;;;19.36;47.58;96014.50;10331066;28;20054;-72
2023/03/31 03:28:29;;;;;;;1.05;0.80;;;;;;;19.35;47.51;96015.66;10327426;28;20053;-72
2023/03/31 03:33:50;;;;;;;1.40;0.90;;;;;;;19.34;47.68;95997.09;10307936;28;20046;-72
2023/03/31 03:39:09;;;;;;;1.70;1.00;;;;;;;19.33;47.67;95990.13;10321385;28;20455;-72
2023/03/31 03:44:29;;;;;;;2.33;1.00;;;;;;;19.33;47.54;95987.44;10335146;28;20061;-72
2023/03/31 03:49:49;;;;;;;0.90;0.70;;;;;;;19.32;47.51;95975.03;10292889;28;20114;-72
2023/03/31 03:55:10;;;;;;;1.08;0.98;;;;;;;19.31;47.65;95971.56;10320831;28;20042;-72
2023/03/31 04:00:30;;;;;;;1.67;1.00;;;;;;;19.28;47.70;95956.03;10334351;28;20408;-72
2023/03/31 04:05:49;;;;;;;0.93;0.77;;;;;;;19.29;47.68;95946.03;10348408;28;20054;-72
2023/03/31 04:11:17;;;;;;;1.15;1.00;;;;;;;19.28;47.57;95939.06;10333434;28;20062;-72
2023/03/31 04:16:37;;;;;;;1.33;0.90;;;;;;;19.27;47.63;95932.09;10333168;28;20061;-72
2023/03/31 04:22:01;;;;;;;1.15;0.82;;;;;;;19.26;47.65;95914.31;10333138;28;20498;-73
2023/03/31 04:27:21;;;;;;;1.52;0.95;;;;;;;19.27;47.94;95913.97;10343004;28;20495;-73
2023/03/31 04:32:41;;;;;;;0.88;0.80;;;;;;;19.28;47.99;95906.66;10332730;28;20073;-73
2023/03/31 04:38:01;;;;;;;1.02;0.70;;;;;;;19.29;48.18;95902.84;10332745;28;20406;-73
2023/03/31 04:43:21;;;;;;;0.90;0.80;;;;;;;19.29;48.12;95902.84;10332162;28;20042;-73
2023/03/31 04:48:40;;;;;;;0.57;0.57;;;;;;;19.31;48.28;95900.56;10318649;28;20053;-73
2023/03/31 04:54:00;;;;;;;0.82;0.77;;;;;;;19.31;48.29;95895.16;10347528;28;20069;-73
2023/03/31 04:59:19;;;;;;;0.95;0.77;;;;;;;19.33;48.38;95887.50;10372171;28;20486;-73
2023/03/31 05:04:39;;;;;;;0.80;0.80;;;;;;;19.34;48.28;95883.66;10358792;28;20415;-73
2023/03/31 05:09:58;;;;;;;1.00;0.80;;;;;;;19.35;48.69;95869.81;10359285;28;20478;-75
2023/03/31 05:15:17;;;;;;;1.23;0.80;;;;;;;19.39;48.49;95861.03;10372186;28;20081;-73
2023/03/31 05:20:37;;;;;;;1.10;0.90;;;;;;;19.41;48.25;95850.69;10358624;28;20053;-73
2023/03/31 05:25:57;;;;;;;0.98;0.60;;;;;;;19.42;48.13;95836.81;10354113;28;20069;-73
2023/03/31 05:31:16;;;;;;;1.00;0.88;;;;;;;19.44;48.10;95833.75;10371688;28;20449;-73
2023/03/31 05:36:36;;;;;;;0.70;0.70;;;;;;;19.45;48.22;95822.63;10386307;28;20049;-73
2023/03/31 05:41:55;;;;;;;0.98;0.70;;;;;;;19.50;48.18;95814.28;10357777;28;20049;-73
2023/03/31 05:47:15;;;;;;;1.17;0.80;;;;;;;19.51;48.13;95807.72;10357921;28;20057;-73
2023/03/31 05:52:35;;;;;;;2.65;1.20;;;;;;;19.37;44.03;95796.56;10357632;28;20038;-73
2023/03/31 05:57:55;;;;;;;3.15;1.20;;;;;;;19.28;45.32;95787.84;10371512;28;20068;-73
2023/03/31 06:03:15;;;;;;;1.77;1.00;;;;;;;19.38;45.82;95787.31;10371512;28;20096;-73
2023/03/31 06:08:36;;;;;;;2.15;1.10;;;;;;;19.45;45.64;95782.09;10371326;28;20045;-72
2023/03/31 06:13:56;;;;;;;1.80;0.98;;;;;;;19.52;45.73;95778.78;10378300;28;20042;-74
2023/03/31 06:19:15;;;;;;;2.45;1.10;;;;;;;19.56;45.87;95769.66;10378215;28;20046;-74
2023/03/31 06:24:34;;;;;;;1.80;1.00;;;;;;;19.60;46.22;95767.03;10364395;28;20037;-77
2023/03/31 06:29:54;;;;;;;1.80;0.90;;;;;;;19.64;46.14;95759.00;10381067;28;20391;-77
2023/03/31 06:35:14;;;;;;;2.72;0.80;;;;;;;19.67;46.20;95753.69;10350470;28;20398;-77
2023/03/31 06:40:33;;;;;;;1.10;0.90;;;;;;;19.71;46.14;95748.38;10378710;28;20527;-76
2023/03/31 06:45:54;;;;;;;0.93;0.80;;;;;;;19.73;46.43;95751.53;10350296;28;20128;-76
2023/03/31 06:51:13;;;;;;;0.98;0.88;;;;;;;19.77;46.47;95752.41;10377151;28;20487;-76
2023/03/31 06:56:33;;;;;;;2.00;0.90;;;;;;;19.81;46.51;95745.16;10363282;28;20542;-76
2023/03/31 07:01:53;;;;;;;1.25;0.85;;;;;;;19.84;47.07;95747.16;10349520;28;20502;-76
2023/03/31 07:07:13;;;;;;;15.43;10.57;;;;;;;19.88;47.35;95742.63;10376533;28;20057;-80
2023/03/31 07:12:33;;;;;;;10.50;7.30;;;;;;;19.93;47.28;95744.25;10362851;28;20084;-76
2023/03/31 07:18:01;;;;;;;9.30;6.35;;;;;;;19.94;47.28;95735.81;10376247;28;20050;-77
2023/03/31 07:23:20;;;;;;;9.48;6.28;;;;;;;19.97;47.22;95738.94;10362099;28;20406;-77
2023/03/31 07:28:40;;;;;;;9.43;6.60;;;;;;;19.99;47.35;95734.75;10367313;28;20053;-74
2023/03/31 07:34:01;;;;;;;6.95;5.25;;;;;;;20.03;47.17;95724.81;10390076;28;20053;-76
2023/03/31 07:39:21;;;;;;;6.07;4.88;;;;;;;20.05;47.30;95713.63;10361578;28;20490;-76
2023/03/31 07:44:40;;;;;;;6.75;4.65;;;;;;;20.08;47.08;95713.72;10361247;28;20533;-76
2023/03/31 07:50:00;;;;;;;6.10;4.05;;;;;;;20.11;47.11;95704.09;10374755;28;20049;-76
2023/03/31 07:55:22;;;;;;;7.13;4.35;;;;;;;20.14;47.18;95690.66;10374669;28;20049;-76
2023/03/31 08:00:42;;;;;;;6.70;4.13;;;;;;;20.18;47.26;95690.72;10361002;28;20046;-76
2023/03/31 08:06:02;;;;;;;4.95;3.83;;;;;;;20.21;47.35;95670.31;10389098;28;20052;-77
2023/03/31 08:11:21;;;;;;;4.68;3.70;;;;;;;20.24;47.48;95680.41;10346871;28;20048;-76
2023/03/31 08:16:41;;;;;;;5.82;3.80;;;;;;;20.26;47.57;95672.75;10374123;28;20045;-76
2023/03/31 08:22:01;;;;;;;5.32;3.53;;;;;;;20.28;47.51;95676.66;10359878;28;20514;-76
2023/03/31 08:27:21;;;;;;;4.22;3.35;;;;;;;20.29;47.59;95678.22;10383373;28;20081;-76
2023/03/31 08:32:40;;;;;;;4.93;3.50;;;;;;;20.33;47.42;95667.47;10359014;28;20049;-73
2023/03/31 08:38:00;;;;;;;5.72;3.33;;;;;;;20.33;47.29;95667.47;10387570;28;20042;-73
2023/03/31 08:43:27;;;;;;;5.40;3.25;;;;;;;20.33;47.30;95656.66;10387854;28;20038;-73
2023/03/31 08:48:53;;;;;;;4.10;2.85;;;;;;;20.35;47.35;95660.56;10387629;28;20045;-75
2023/03/31 08:54:37;;;;;;;2.90;2.60;;;;;;;20.36;45.84;95650.53;10359295;28;20104;-75
2023/03/31 09:00:05;;;;;;;3.72;1.90;;;;;;;20.38;45.41;95650.16;10358964;28;20057;-75
2023/03/31 09:05:50;;;;;;;2.43;1.87;;;;;;;20.39;44.19;95635.53;10372386;28;20045;-75
2023/03/31 09:11:34;;;;;;;2.72;1.80;;;;;;;20.40;44.60;95635.13;10387385;28;20046;-75
2023/03/31 09:17:07;;;;;;;2.85;1.80;;;;;;;20.39;44.70;95632.81;10372400;28;20049;-75
2023/03/31 09:22:32;;;;;;;2.92;2.00;;;;;;;20.37;43.92;95627.75;10359438;28;20058;-74
2023/03/31 09:27:55;;;;;;;3.00;2.05;;;;;;;20.36;44.37;95607.25;10365774;28;20058;-75
2023/03/31 09:33:30;;;;;;;5.32;2.10;;;;;;;20.35;44.33;95589.47;10385710;28;20045;-75
2023/03/31 09:38:50;;;;;;;2.85;1.88;;;;;;;20.35;44.43;95584.06;10372480;28;20049;-75
2023/03/31 09:44:21;;;;;;;2.70;2.00;;;;;;;20.34;44.53;95587.88;10387911;28;20548;-75
2023/03/31 09:49:41;;;;;;;2.75;1.90;;;;;;;20.34;44.53;95583.25;10394542;28;20049;-74
2023/03/31 09:55:04;;;;;;;3.92;2.00;;;;;;;20.34;44.72;95567.03;10365982;28;20046;-75
2023/03/31 10:00:24;;;;;;;4.10;2.10;;;;;;;20.33;44.83;95553.88;10379190;28;20414;-75
2023/03/31 10:05:50;;;;;;;4.32;2.30;;;;;;;20.34;44.84;95552.72;10393681;28;20050;-75
2023/03/31 10:11:10;;;;;;;3.78;1.90;;;;;;;20.33;45.02;95546.53;10378974;28;20057;-75
2023/03/31 10:16:34;;;;;;;4.20;2.20;;;;;;;20.32;45.14;95536.84;10377778;28;20046;-75
2023/03/31 10:21:59;;;;;;;3.47;1.88;;;;;;;20.32;45.39;95531.44;10376500;28;20052;-75
2023/03/31 10:27:25;;;;;;;3.30;1.70;;;;;;;20.30;45.30;95522.91;10373163;28;20053;-75
2023/03/31 10:32:45;;;;;;;3.10;1.80;;;;;;;20.31;45.49;95515.59;10390252;28;20120;-75
2023/03/31 10:38:14;;;;;;;3.45;1.90;;;;;;;20.31;45.57;95502.06;10361236;28;20046;-75
2023/03/31 10:43:42;;;;;;;3.17;2.00;;;;;;;20.31;45.68;95492.03;10389766;28;20042;-72
2023/03/31 10:49:33;;;;;;;5.15;1.80;;;;;;;20.30;45.88;95495.88;10376271;28;20046;-72
2023/03/31 10:54:58;;;;;;;4.38;1.70;;;;;;;20.31;45.84;95496.66;10377108;28;20206;-72
2023/03/31 11:00:43;;;;;;;3.00;1.70;;;;;;;20.31;45.87;95480.44;10349176;28;20049;-72
2023/03/31 11:06:15;;;;;;;2.53;1.80;;;;;;;20.29;45.93;95491.63;10343784;28;20115;-72
2023/03/31 11:12:12;;;;;;;2.70;2.10;;;;;;;20.28;45.98;95481.91;10376645;28;20042;-72
2023/03/31 11:17:48;;;;;;;4.90;1.52;;;;;;;20.28;46.23;95464.94;10391068;28;20042;-72
2023/03/31 11:23:07;;;;;;;2.30;1.95;;;;;;;20.27;46.36;95472.25;10391209;28;20050;-73
2023/03/31 11:28:45;;;;;;;3.28;1.80;;;;;;;20.28;46.42;95462.22;10383143;28;20061;-72
2023/03/31 11:34:19;;;;;;;2.97;1.70;;;;;;;20.29;46.62;95461.09;10378582;28;20467;-73
2023/03/31 11:39:47;;;;;;;2.30;1.73;;;;;;;20.27;46.68;95449.84;10390062;28;20049;-72
2023/03/31 11:45:17;;;;;;;2.72;1.60;;;;;;;20.27;46.69;95437.09;10390105;28;20045;-73
2023/03/31 11:50:38;;;;;;;1.90;1.73;;;;;;;20.27;46.41;95345.16;10375426;28;20042;-72
2023/03/31 11:56:01;;;;;;;5.80;2.55;;;;;;;20.11;45.92;95390.47;10361396;28;20046;-72
2023/03/31 12:01:24;;;;;;;3.58;2.13;;;;;;;20.11;46.24;95377.75;10347432;28;20049;-71
2023/03/31 12:06:45;;;;;;;3.13;2.13;;;;;;;20.17;46.49;95369.31;10374406;28;20056;-72
2023/03/31 12:12:18;;;;;;;3.85;2.40;;;;;;;20.18;46.71;95358.16;10373792;28;20050;-72
2023/03/31 12:17:40;;;;;;;3.03;2.10;;;;;;;20.17;46.66;95355.81;10374017;28;20053;-72
2023/03/31 12:23:02;;;;;;;2.47;2.15;;;;;;;20.18;46.72;95352.75;10373664;28;20057;-72
2023/03/31 12:28:22;;;;;;;3.78;1.85;;;;;;;20.19;46.97;95351.63;10365968;28;20119;-72
2023/03/31 12:33:46;;;;;;;2.10;1.85;;;;;;;20.18;47.08;95325.69;10388063;28;20045;-72
2023/03/31 12:39:27;;;;;;;2.50;1.80;;;;;;;20.19;47.27;95315.66;10373348;28;20104;-72
2023/03/31 12:45:09;;;;;;;2.17;1.85;;;;;;;20.19;47.49;95300.25;10373638;28;20050;-74
2023/03/31 12:50:37;;;;;;;2.30;1.90;;;;;;;20.19;47.73;95297.53;10332596;28;20042;-75
2023/03/31 12:55:57;;;;;;;3.45;1.85;;;;;;;20.20;47.60;95296.38;10332177;28;20043;-75
2023/03/31 13:01:24;;;;;;;1.52;1.30;;;;;;;20.13;46.25;95288.16;10332028;28;20046;-75
2023/03/31 13:06:51;;;;;;;2.75;1.67;;;;;;;20.06;45.86;95285.38;10318513;28;20054;-74
2023/03/31 13:12:16;;;;;;;1.63;1.52;;;;;;;20.06;47.01;95275.31;10304658;28;20038;-74
2023/03/31 13:17:36;;;;;;;2.85;1.67;;;;;;;20.07;46.98;95263.38;10351853;28;20061;-74
2023/03/31 13:23:24;;;;;;;1.48;1.38;;;;;;;20.08;47.34;95237.13;10347008;28;20050;-74
2023/03/31 13:28:44;;;;;;;2.17;1.98;;;;;;;20.09;47.55;95214.34;10357228;28;20046;-75
2023/03/31 13:34:06;;;;;;;3.28;1.30;;;;;;;20.10;47.19;95216.69;10350403;28;20042;-75
2023/03/31 13:39:54;;;;;;;1.50;1.13;;;;;;;20.06;45.83;95178.00;10375792;28;20045;-76
2023/03/31 13:45:23;;;;;;;3.67;1.48;;;;;;;20.07;47.09;95178.78;10379618;28;20391;-76
2023/03/31 13:51:18;;;;;;;2.33;1.58;;;;;;;20.06;47.92;95161.00;10366034;28;20050;-76
2023/03/31 13:56:55;;;;;;;3.22;1.33;;;;;;;20.07;47.94;95157.16;10379417;28;20045;-74
2023/03/31 14:02:24;;;;;;;1.60;1.50;;;;;;;20.08;48.17;95158.72;10380733;28;20049;-75
2023/03/31 14:07:45;;;;;;;2.47;1.40;;;;;;;20.08;48.29;95151.38;10393068;28;20049;-75
2023/03/31 14:13:07;;;;;;;5.15;1.50;;;;;;;20.07;48.56;95257.97;10338160;28;20050;-74
2023/03/31 14:18:32;;;;;;;3.42;1.38;;;;;;;20.07;48.59;95292.31;10324613;28;20055;-74
2023/03/31 14:24:14;;;;;;;5.20;1.30;;;;;;;20.08;49.04;95245.22;10338058;28;20513;-75
2023/03/31 14:29:50;;;;;;;1.38;1.20;;;;;;;20.06;49.57;95264.50;10328230;28;20058;-79
2023/03/31 14:35:27;;;;;;;2.22;1.30;;;;;;;20.07;49.95;95273.38;10324428;28;20042;-77
2023/03/31 14:40:49;;;;;;;2.80;1.52;;;;;;;20.06;49.11;95266.44;10337587;28;20046;-74
2023/03/31 14:46:09;;;;;;;2.17;1.20;;;;;;;20.06;49.34;95252.91;10336911;28;20050;-74
2023/03/31 14:51:30;;;;;;;2.47;1.27;;;;;;;20.04;49.35;95228.94;10323423;28;20491;-74
2023/03/31 14:56:55;;;;;;;1.75;1.10;;;;;;;20.05;49.60;95227.03;10336760;28;20479;-74
2023/03/31 15:02:28;;;;;;;1.95;1.13;;;;;;;20.04;49.92;95217.38;10336493;28;20042;-74
2023/03/31 15:07:48;;;;;;;2.05;1.20;;;;;;;20.02;49.83;95206.91;10328755;28;20100;-74
2023/03/31 15:13:10;;;;;;;2.80;1.20;;;;;;;20.02;49.95;95179.88;10391391;28;20088;-75
2023/03/31 15:18:30;;;;;;;2.03;1.10;;;;;;;20.00;47.78;95163.25;10362633;28;20045;-74
2023/03/31 15:23:52;;;;;;;1.83;1.00;;;;;;;19.98;48.96;95143.94;10388210;28;20054;-74
2023/03/31 15:29:28;;;;;;;1.75;1.23;;;;;;;19.98;48.92;95140.44;10363643;28;20045;-75
2023/03/31 15:34:49;;;;;;;2.60;1.20;;;;;;;19.97;48.91;95153.16;10387998;28;20045;-75
2023/03/31 15:40:34;;;;;;;3.63;1.17;;;;;;;19.98;49.12;95167.47;10391849;28;20088;-75
2023/03/31 15:45:58;;;;;;;3.55;1.10;;;;;;;19.98;49.29;95159.38;10376540;28;20053;-76
2023/03/31 15:51:29;;;;;;;2.13;1.08;;;;;;;19.99;49.86;95166.31;10376339;28;20549;-75
2023/03/31 15:56:50;;;;;;;1.20;1.00;;;;;;;19.99;49.95;95169.78;10361332;28;20038;-76
2023/03/31 16:02:15;;;;;;;6.07;3.20;;;;;;;19.81;44.80;95144.47;10374782;28;20042;-76
2023/03/31 16:07:35;;;;;;;7.68;3.60;;;;;;;19.61;44.48;95138.38;10374529;28;20049;-76
2023/03/31 16:12:58;;;;;;;6.18;2.45;;;;;;;19.69;47.55;95162.41;10389136;28;20085;-75
2023/03/31 16:18:40;;;;;;;5.35;2.13;;;;;;;19.77;47.68;95163.31;10388975;28;20038;-75
2023/03/31 16:24:00;;;;;;;4.53;2.50;;;;;;;19.82;47.73;95159.53;10360995;28;20056;-76
2023/03/31 16:29:21;;;;;;;4.20;2.42;;;;;;;19.84;47.99;95159.97;10337094;28;20054;-76
2023/03/31 16:35:01;;;;;;;4.65;2.80;;;;;;;19.84;48.35;95166.13;10333434;28;20046;-76
2023/03/31 16:40:20;;;;;;;8.27;2.50;;;;;;;19.85;48.40;95172.31;10333254;28;20038;-76
2023/03/31 16:45:43;;;;;;;5.22;1.80;;;;;;;19.77;47.09;95176.06;10347479;28;20043;-77
2023/03/31 16:51:03;;;;;;;2.72;2.10;;;;;;;19.79;47.92;95169.16;10346126;28;20482;-76
2023/03/31 16:56:22;;;;;;;3.33;2.13;;;;;;;19.80;48.03;95164.50;10318031;28;20049;-77
2023/03/31 17:01:42;;;;;;;3.67;2.08;;;;;;;19.79;48.00;95166.44;10346967;28;20050;-77
2023/03/31 17:07:01;;;;;;;3.20;2.17;;;;;;;19.79;48.04;95141.34;10332008;28;20042;-77
2023/03/31 17:12:21;;;;;;;2.72;2.15;;;;;;;19.80;48.17;95153.69;10346598;28;20042;-77
2023/03/31 17:17:41;;;;;;;4.53;2.05;;;;;;;19.79;48.01;95177.25;10345822;28;20046;-77
2023/03/31 17:23:01;;;;;;;3.08;1.80;;;;;;;19.14;43.54;95189.72;10346486;28;20398;-78
2023/03/31 17:28:20;;;;;;;3.03;1.80;;;;;;;19.38;45.70;95185.09;10357088;28;20050;-77
2023/03/31 17:33:40;;;;;;;4.32;1.90;;;;;;;19.51;46.96;95181.06;10372553;28;20045;-77
2023/03/31 17:39:01;;;;;;;2.88;2.00;;;;;;;19.60;47.02;95177.31;10345325;28;20351;-78
2023/03/31 17:44:21;;;;;;;3.15;1.65;;;;;;;19.63;46.95;95187.41;10358657;28;20046;-78
2023/03/31 17:49:41;;;;;;;2.28;1.70;;;;;;;19.64;47.02;95189.75;10372283;28;20410;-78
2023/03/31 17:55:03;;;;;;;4.35;1.95;;;;;;;19.66;47.00;95210.97;10373550;28;20425;-77
2023/03/31 18:00:23;;;;;;;3.80;1.60;;;;;;;19.67;47.28;95215.25;10358127;28;20483;-78
2023/03/31 18:05:43;;;;;;;2.80;1.60;;;;;;;19.66;47.43;95221.78;10372173;28;20128;-77
2023/03/31 18:11:04;;;;;;;2.58;1.80;;;;;;;19.65;47.20;95214.84;10379552;28;20454;-78
2023/03/31 18:16:25;;;;;;;2.25;1.60;;;;;;;19.66;47.38;95221.78;10378828;28;20038;-75
2023/03/31 18:21:44;;;;;;;4.07;1.58;;;;;;;19.65;47.69;95222.94;10405200;28;20045;-75
2023/03/31 18:27:05;;;;;;;4.40;1.55;;;;;;;19.65;47.79;95239.94;10368040;28;20062;-75
2023/03/31 18:32:24;;;;;;;1.60;1.30;;;;;;;19.65;48.15;95228.34;10397714;28;20042;-75
2023/03/31 18:37:44;;;;;;;3.22;1.50;;;;;;;19.66;48.28;95224.50;10367472;28;20045;-75
2023/03/31 18:43:04;;;;;;;1.77;1.30;;;;;;;19.64;48.41;95222.19;10396103;28;20061;-76
2023/03/31 18:48:24;;;;;;;1.77;1.40;;;;;;;19.66;48.53;95240.69;10381593;28;20049;-75
2023/03/31 18:53:43;;;;;;;3.20;1.40;;;;;;;19.64;48.50;95243.78;10364080;28;20046;-76
2023/03/31 18:59:04;;;;;;;2.67;1.25;;;;;;;19.64;48.65;95227.56;10364129;28;20069;-75
2023/03/31 19:04:24;;;;;;;2.72;1.40;;;;;;;19.64;48.98;95227.56;10398428;28;20422;-74
2023/03/31 19:09:43;;;;;;;1.58;1.30;;;;;;;19.64;49.02;95221.38;10400122;28;20445;-76
2023/03/31 19:15:05;;;;;;;1.80;1.33;;;;;;;19.64;49.26;95226.78;10370021;28;20042;-76
2023/03/31 19:20:25;;;;;;;1.75;1.25;;;;;;;19.63;49.40;95236.81;10379337;28;20042;-76
2023/03/31 19:25:44;;;;;;;2.28;1.50;;;;;;;19.63;49.61;95230.63;10377738;28;20056;-75
2023/03/31 19:31:04;;;;;;;2.58;1.27;;;;;;;19.63;49.96;95236.81;10362663;28;20045;-74
2023/03/31 19:36:24;;;;;;;3.38;1.60;;;;;;;19.62;50.18;95240.66;10392461;28;20042;-74
2023/03/31 19:41:44;;;;;;;3.50;1.45;;;;;;;19.63;50.35;95227.94;10361972;28;20045;-75
2023/03/31 19:47:04;;;;;;;2.47;1.35;;;;;;;19.62;50.65;95237.16;10390050;28;20065;-75
2023/03/31 19:52:23;;;;;;;3.13;1.38;;;;;;;19.62;50.74;95229.06;10374667;28;20166;-75
2023/03/31 19:57:43;;;;;;;3.50;1.48;;;;;;;19.63;50.86;95238.75;10376883;28;20498;-74
2023/03/31 20:03:03;;;;;;;5.90;1.90;;;;;;;19.61;50.99;95227.53;10374923;28;20449;-78
2023/03/31 20:08:22;;;;;;;2.63;1.63;;;;;;;19.60;50.70;95225.94;10389793;28;20049;-79
2023/03/31 20:13:43;;;;;;;5.88;1.90;;;;;;;19.60;51.08;95234.06;10374436;28;20038;-76
2023/03/31 20:19:04;;;;;;;4.35;1.80;;;;;;;19.60;50.90;95231.34;10373988;28;20104;-76
2023/03/31 20:24:26;;;;;;;3.75;1.70;;;;;;;19.60;51.12;95244.84;10360155;28;20050;-76
2023/03/31 20:29:45;;;;;;;5.68;1.90;;;;;;;19.60;50.84;95252.97;10376285;28;20137;-77
2023/03/31 20:35:08;;;;;;;3.92;2.15;;;;;;;19.58;50.85;95239.81;10373759;28;20038;-78
2023/03/31 20:40:27;;;;;;;2.60;1.70;;;;;;;19.58;51.04;95233.63;10374077;28;20512;-78
2023/03/31 20:45:56;;;;;;;4.60;1.67;;;;;;;19.56;50.93;95234.00;10373842;28;20049;-78
2023/03/31 20:51:21;;;;;;;5.47;1.92;;;;;;;19.57;51.29;95238.25;10373425;28;20423;-77
2023/03/31 20:56:41;;;;;;;3.25;2.03;;;;;;;19.56;51.50;95242.09;10387790;28;20038;-76
2023/03/31 21:02:02;;;;;;;3.40;1.50;;;;;;;19.55;51.64;95233.22;10373069;28;20499;-76
2023/03/31 21:07:21;;;;;;;2.50;1.48;;;;;;;19.56;51.71;95232.09;10372953;28;20041;-76
2023/03/31 21:12:44;;;;;;;4.97;1.67;;;;;;;19.55;51.71;95213.53;10359077;28;20049;-76
2023/03/31 21:18:05;;;;;;;4.88;1.83;;;;;;;19.55;51.73;95210.84;10373285;28;20050;-77
2023/03/31 21:23:26;;;;;;;3.15;1.55;;;;;;;19.54;51.77;95206.56;10372557;28;20045;-76
2023/03/31 21:28:46;;;;;;;4.28;1.80;;;;;;;19.53;51.82;95205.00;10349813;28;20438;-76
2023/03/31 21:34:06;;;;;;;4.30;1.67;;;;;;;19.53;51.66;95199.63;10385926;28;20045;-76
2023/03/31 21:39:26;;;;;;;3.03;1.58;;;;;;;19.52;51.80;95196.16;10372210;28;20402;-76
2023/03/31 21:44:46;;;;;;;3.85;1.52;;;;;;;19.52;51.74;95206.94;10366469;28;20069;-76
2023/03/31 21:50:06;;;;;;;3.72;1.83;;;;;;;19.52;51.70;95220.44;10379786;28;20054;-76
2023/03/31 21:55:26;;;;;;;3.30;1.60;;;;;;;19.51;51.81;95218.88;10379444;28;20042;-76
2023/03/31 22:00:45;;;;;;;3.40;1.60;;;;;;;19.50;51.58;95221.94;10394421;28;20048;-76
2023/03/31 22:06:06;;;;;;;4.03;1.48;;;;;;;19.51;51.75;95228.91;10379229;28;20049;-76
2023/03/31 22:11:27;;;;;;;3.10;1.45;;;;;;;19.50;51.78;95230.03;10379261;28;20038;-76
2023/03/31 22:16:46;;;;;;;3.38;1.88;;;;;;;19.48;51.76;95230.41;10378875;28;20045;-77
2023/03/31 22:22:06;;;;;;;2.63;1.50;;;;;;;19.49;51.64;95231.19;10378286;28;20046;-77
2023/03/31 22:27:26;;;;;;;3.08;1.50;;;;;;;19.47;51.63;95228.84;10373393;28;20050;-76
2023/03/31 22:32:45;;;;;;;2.40;1.58;;;;;;;19.46;51.79;95224.56;10378389;28;20413;-76
2023/03/31 22:38:04;;;;;;;2.42;1.33;;;;;;;19.47;51.79;95236.94;10378439;28;20474;-77
2023/03/31 22:43:24;;;;;;;2.38;1.60;;;;;;;19.45;51.65;95224.97;10364048;28;20490;-76
2023/03/31 22:48:48;;;;;;;3.17;1.50;;;;;;;19.45;51.67;95217.63;10377649;28;20038;-76
2023/03/31 22:54:12;;;;;;;3.90;1.40;;;;;;;19.45;51.53;95217.63;10362908;28;20077;-76
2023/03/31 22:59:32;;;;;;;2.75;1.20;;;;;;;19.44;51.54;95209.88;10377268;28;20044;-76
2023/03/31 23:04:52;;;;;;;2.47;1.10;;;;;;;19.43;51.68;95206.41;10376935;28;20042;-77
2023/03/31 23:10:11;;;;;;;3.08;1.40;;;;;;;19.42;51.60;95210.22;10376806;28;20061;-76
2023/03/31 23:15:30;;;;;;;2.30;1.25;;;;;;;19.43;51.51;95217.22;10377074;28;20057;-76
2023/03/31 23:20:50;;;;;;;1.65;1.10;;;;;;;19.41;51.77;95214.09;10391105;28;20046;-78
2023/03/31 23:26:11;;;;;;;2.40;1.50;;;;;;;19.42;51.54;95215.63;10360749;28;20086;-77
2023/03/31 23:31:31;;;;;;;3.25;1.48;;;;;;;19.40;51.57;95207.13;10376088;28;20042;-77
2023/03/31 23:36:51;;;;;;;2.75;1.30;;;;;;;19.40;51.37;95203.66;10375675;28;20497;-78
2023/03/31 23:42:14;;;;;;;2.15;1.42;;;;;;;19.39;51.28;95192.06;10375614;28;20043;-77
2023/03/31 23:47:39;;;;;;;2.65;1.40;;;;;;;19.38;51.13;95201.31;10376416;28;20541;-77
2023/03/31 23:53:00;;;;;;;1.35;1.05;;;;;;;19.36;50.91;95201.66;10375617;28;20092;-77
2023/03/31 23:58:19;;;;;;;2.10;1.30;;;;;;;19.36;50.79;95200.88;10361268;28;20414;-78
